createdAt,value
2018-01-03T06:20:04.122Z,71.90
2018-01-03T06:22:37.090Z,71.70
2018-01-03T06:25:10.434Z,72.00
2018-01-03T06:27:43.215Z,73.30
2018-01-03T06:30:16.972Z,73.70
2018-01-03T06:32:49.725Z,73.00
2018-01-03T06:35:25.487Z,72.70
2018-01-03T06:38:03.503Z,73.00
2018-01-03T06:40:35.971Z,73.00
2018-01-03T06:43:12.136Z,72.10
2018-01-03T06:45:46.603Z,71.90
2018-01-03T06:48:25.034Z,71.00
2018-01-03T06:50:57.822Z,71.60
2018-01-03T06:53:33.642Z,71.90
2018-01-03T06:56:07.533Z,72.00
2018-01-03T06:58:44.297Z,71.20
2018-01-03T07:01:17.435Z,71.30
2018-01-03T07:03:49.718Z,70.60
2018-01-03T07:06:21.896Z,69.10
2018-01-03T07:08:53.308Z,69.70
2018-01-03T07:11:26.886Z,69.70
2018-01-03T07:14:00.741Z,67.90
2018-01-03T07:16:36.418Z,69.90
2018-01-03T07:19:13.207Z,69.90
2018-01-03T07:21:45.404Z,69.70
2018-01-03T07:24:18.712Z,70.10
2018-01-03T07:26:53.499Z,70.00
2018-01-03T07:29:25.259Z,69.40
2018-01-03T07:32:00.403Z,68.70
2018-01-03T07:34:33.125Z,68.90
2018-01-03T07:37:05.254Z,67.80
2018-01-03T07:39:39.821Z,67.80
2018-01-03T07:42:13.047Z,67.80
2018-01-03T07:44:48.942Z,66.70
2018-01-03T07:47:21.310Z,67.10
2018-01-03T07:49:55.537Z,67.10
2018-01-03T07:52:29.366Z,67.00
2018-01-03T07:55:03.541Z,65.20
2018-01-03T07:57:38.472Z,65.40
2018-01-03T08:00:10.256Z,65.30
2018-01-03T08:02:43.685Z,65.00
2018-01-03T08:05:16.258Z,65.00
2018-01-03T08:07:48.572Z,65.30
2018-01-03T08:10:20.562Z,65.30
2018-01-03T08:12:51.653Z,65.50
2018-01-03T08:15:23.379Z,66.20
2018-01-03T08:17:57.230Z,66.70
2018-01-03T08:20:32.498Z,65.80
2018-01-03T08:23:09.463Z,64.00
2018-01-03T08:25:41.594Z,63.20
2018-01-03T08:28:12.614Z,64.50
2018-01-03T08:30:45.317Z,72.00
2018-01-03T08:33:18.007Z,81.40
2018-01-03T08:35:49.135Z,81.50
2018-01-03T08:38:20.027Z,80.70
2018-01-03T08:43:43.793Z,81.80
2018-01-03T08:46:15.354Z,82.60
2018-01-03T08:48:46.902Z,86.40
2018-01-03T08:51:20.684Z,85.60
2018-01-03T08:53:52.374Z,86.90
2018-01-03T08:56:27.860Z,86.70
2018-01-03T08:59:00.279Z,89.50
2018-01-03T09:01:32.601Z,89.60
2018-01-03T09:04:06.024Z,91.00
2018-01-03T09:06:40.918Z,91.00
2018-01-03T09:09:14.158Z,90.10
2018-01-03T09:11:45.599Z,89.20
2018-01-03T09:14:17.749Z,86.90
2018-01-03T09:16:51.904Z,87.20
2018-01-03T09:19:22.923Z,87.20
2018-01-03T09:21:55.363Z,89.80
2018-01-03T09:24:28.324Z,88.80
2018-01-03T09:27:01.117Z,89.20
2018-01-03T09:29:33.113Z,89.00
2018-01-03T09:32:06.287Z,87.50
2018-01-03T09:34:39.147Z,87.50
2018-01-03T09:37:14.179Z,88.40
2018-01-03T09:39:45.182Z,85.20
2018-01-03T09:42:17.036Z,88.40
2018-01-03T09:44:53.669Z,87.50
2018-01-03T09:47:27.970Z,85.10
2018-01-03T09:50:01.735Z,86.60
2018-01-03T09:52:38.190Z,89.10
2018-01-03T09:55:10.377Z,89.20
2018-01-03T09:57:43.360Z,89.20
2018-01-03T10:00:18.091Z,85.70
2018-01-03T10:02:54.241Z,83.50
2018-01-03T10:05:29.754Z,81.30
2018-01-03T10:08:06.282Z,81.20
2018-01-03T10:10:38.238Z,78.50
2018-01-03T10:13:13.418Z,78.60
2018-01-03T10:15:45.986Z,78.20
2018-01-03T10:18:18.514Z,78.10
2018-01-03T10:20:55.401Z,76.50
2018-01-03T10:23:27.237Z,75.60
2018-01-03T10:25:59.617Z,78.70
2018-01-03T10:28:34.354Z,74.50
2018-01-03T10:31:07.108Z,78.80
2018-01-03T10:33:45.513Z,78.10
2018-01-03T10:36:16.500Z,75.70
2018-01-03T10:38:51.668Z,77.00
2018-01-03T10:41:23.246Z,78.00
2018-01-03T10:43:56.329Z,77.40
2018-01-03T10:46:28.014Z,77.60
2018-01-03T10:49:01.956Z,77.50
2018-01-03T10:51:34.278Z,74.80
2018-01-03T10:54:09.216Z,73.30
2018-01-03T10:56:42.959Z,76.50
2018-01-03T10:59:17.358Z,75.00
2018-01-03T11:01:53.553Z,73.20
2018-01-03T11:04:27.803Z,72.00
2018-01-03T11:07:04.891Z,71.90
2018-01-03T11:09:40.264Z,75.10
2018-01-03T11:12:14.506Z,75.00
2018-01-03T11:14:48.483Z,73.50
2018-01-03T11:17:21.170Z,74.60
2018-01-03T11:19:53.613Z,73.20
2018-01-03T11:22:26.676Z,74.30
2018-01-03T11:24:58.222Z,75.20
2018-01-03T11:27:40.328Z,72.90
2018-01-03T11:30:13.976Z,73.20
2018-01-03T11:32:45.940Z,73.20
2018-01-03T11:35:16.871Z,73.90
2018-01-03T11:37:53.997Z,72.30
2018-01-03T11:40:26.108Z,72.30
2018-01-03T11:43:01.383Z,74.30
2018-01-03T11:45:33.629Z,73.50
2018-01-03T11:48:12.498Z,73.70
2018-01-03T11:50:47.832Z,73.20
2018-01-03T11:53:18.882Z,72.60
2018-01-03T11:55:56.700Z,74.80
2018-01-03T11:58:33.432Z,73.90
2018-01-03T12:01:05.254Z,75.30
2018-01-03T12:03:37.193Z,74.90
2018-01-03T12:06:11.658Z,76.00
2018-01-03T12:08:58.681Z,75.50
2018-01-03T12:11:30.933Z,76.70
2018-01-03T12:14:03.059Z,74.90
2018-01-03T12:16:47.086Z,74.80
2018-01-03T12:19:20.315Z,75.30
2018-01-03T12:21:52.718Z,74.40
2018-01-03T12:24:24.924Z,74.00
2018-01-03T12:26:58.439Z,74.00
2018-01-03T12:29:31.527Z,75.10
2018-01-03T12:32:04.171Z,76.30
2018-01-03T12:34:36.007Z,75.50
2018-01-03T12:37:13.700Z,76.00
2018-01-03T12:39:47.553Z,75.10
2018-01-03T12:42:24.333Z,76.50
2018-01-03T12:45:00.714Z,75.50
2018-01-03T12:47:33.822Z,74.40
2018-01-03T12:50:07.096Z,75.60
2018-01-03T12:52:38.296Z,75.80
2018-01-03T12:55:10.054Z,75.80
2018-01-03T12:57:44.301Z,73.60
2018-01-03T13:00:18.736Z,73.50
2018-01-03T13:02:54.085Z,73.20
2018-01-03T13:05:27.003Z,73.80
2018-01-03T13:08:07.631Z,74.30
2018-01-03T13:10:39.994Z,73.60
2018-01-03T13:13:12.548Z,72.60
2018-01-03T13:15:46.034Z,73.00
2018-01-03T13:18:17.071Z,71.90
2018-01-03T13:20:55.490Z,72.70
2018-01-03T13:23:27.858Z,72.80
2018-01-03T13:25:59.547Z,69.80
2018-01-03T13:28:31.697Z,71.80
2018-01-03T13:31:04.092Z,70.50
2018-01-03T13:33:35.379Z,71.40
2018-01-03T13:36:14.005Z,72.10
2018-01-03T13:38:52.730Z,71.70
2018-01-03T13:41:25.608Z,71.80
2018-01-03T13:43:59.361Z,71.00
2018-01-03T13:49:13.167Z,71.60
2018-01-03T13:51:47.030Z,73.30
2018-01-03T13:54:22.798Z,73.20
2018-01-03T13:56:54.736Z,71.60
2018-01-03T13:59:25.768Z,71.80
2018-01-03T14:02:00.930Z,70.90
2018-01-03T14:04:35.141Z,69.00
2018-01-03T14:07:09.249Z,70.00
2018-01-03T14:09:41.975Z,70.50
2018-01-03T14:12:13.032Z,70.40
2018-01-03T14:14:46.634Z,69.80
2018-01-03T14:17:19.384Z,69.00
2018-01-03T14:19:52.742Z,69.00
2018-01-03T14:22:26.900Z,68.60
2018-01-03T14:24:59.589Z,68.70
2018-01-03T14:27:33.558Z,66.90
2018-01-03T14:30:06.426Z,67.70
2018-01-03T14:32:38.087Z,66.90
2018-01-03T14:35:10.487Z,67.80
2018-01-03T14:37:42.471Z,66.10
2018-01-03T14:40:16.319Z,66.90
2018-01-03T14:42:52.761Z,68.00
2018-01-03T14:45:25.636Z,66.90
2018-01-03T14:47:57.407Z,66.80
2018-01-03T14:50:33.461Z,67.90
2018-01-03T14:53:06.933Z,67.50
2018-01-03T14:55:39.095Z,67.50
2018-01-03T14:58:24.167Z,67.80
2018-01-03T15:00:57.775Z,68.00
2018-01-03T15:03:29.762Z,69.00
2018-01-03T15:06:03.646Z,69.70
2018-01-03T15:08:36.108Z,69.80
2018-01-03T15:11:08.102Z,70.20
2018-01-03T15:13:41.786Z,70.00
2018-01-03T15:16:13.188Z,70.00
2018-01-03T15:18:47.634Z,70.20
2018-01-03T15:21:20.345Z,70.40
2018-01-03T15:23:51.909Z,70.90
2018-01-03T15:26:27.399Z,71.30
2018-01-03T15:29:01.151Z,71.50
2018-01-03T15:31:44.517Z,72.40
2018-01-03T15:34:17.142Z,75.10
2018-01-03T15:36:54.126Z,75.20
2018-01-03T15:39:27.488Z,75.10
2018-01-03T15:42:01.147Z,75.60
2018-01-03T15:44:32.564Z,76.30
2018-01-03T15:47:04.613Z,75.20
2018-01-03T15:49:37.710Z,77.20
2018-01-03T15:52:08.988Z,77.40
2018-01-03T15:54:41.937Z,76.60
2018-01-03T15:57:12.883Z,76.20
2018-01-03T15:59:45.181Z,75.50
2018-01-03T16:02:20.978Z,77.20
2018-01-03T16:04:53.823Z,74.40
2018-01-03T16:07:24.795Z,74.50
2018-01-03T16:09:56.115Z,73.90
2018-01-03T16:12:28.227Z,73.30
2018-01-03T16:14:59.973Z,73.70
2018-01-03T16:17:33.909Z,72.70
2018-01-03T16:20:08.321Z,72.20
2018-01-03T16:22:42.325Z,72.20
2018-01-03T16:25:17.477Z,71.70
2018-01-03T16:27:48.222Z,71.90
2018-01-03T16:30:20.342Z,72.30
2018-01-03T16:32:55.495Z,72.50
2018-01-03T16:35:26.518Z,72.50
2018-01-03T16:38:00.144Z,71.50
2018-01-03T16:40:30.920Z,71.40
2018-01-03T16:43:04.843Z,71.40
2018-01-03T16:45:37.039Z,71.60
2018-01-03T16:48:08.906Z,71.60
2018-01-03T16:50:41.429Z,71.70
2018-01-03T16:53:11.893Z,72.20
2018-01-03T16:55:43.498Z,72.10
2018-01-03T16:58:15.780Z,72.30
2018-01-03T17:00:48.970Z,72.10
2018-01-03T17:03:20.366Z,72.40
2018-01-03T17:05:53.328Z,71.00
2018-01-03T17:08:30.257Z,71.80
2018-01-03T17:11:01.355Z,72.20
2018-01-03T17:13:33.186Z,72.80
2018-01-03T17:16:05.083Z,72.20
2018-01-03T17:18:37.053Z,71.60
2018-01-03T17:21:13.233Z,71.90
2018-01-03T17:23:44.882Z,71.80
2018-01-03T17:26:16.474Z,71.70
2018-01-03T17:28:48.826Z,71.90
2018-01-03T17:32:21.575Z,73.00
2018-01-03T17:34:55.555Z,73.70
2018-01-03T17:37:30.112Z,73.60
2018-01-03T17:40:01.819Z,74.00
2018-01-03T17:42:35.474Z,73.80
2018-01-03T17:45:08.087Z,75.40
2018-01-03T17:47:39.476Z,75.40
2018-01-03T17:50:12.300Z,76.30
2018-01-03T17:52:44.789Z,76.20
2018-01-03T17:55:18.036Z,75.90
2018-01-03T17:57:49.701Z,76.10
2018-01-03T18:00:22.335Z,76.30
2018-01-03T18:02:54.288Z,76.40
2018-01-03T18:05:29.300Z,78.00
2018-01-03T18:08:00.685Z,77.90
2018-01-03T18:10:32.499Z,79.10
2018-01-03T18:13:04.017Z,79.80
2018-01-03T18:15:36.830Z,80.80
2018-01-03T18:18:10.543Z,79.10
2018-01-03T18:20:42.467Z,78.80
2018-01-03T18:23:13.344Z,79.20
2018-01-03T18:25:45.837Z,79.10
2018-01-03T18:28:18.115Z,78.90
2018-01-03T18:30:49.063Z,78.00
2018-01-03T18:33:20.028Z,78.30
2018-01-03T18:35:50.913Z,78.60
2018-01-03T18:38:22.710Z,77.80
2018-01-03T18:40:56.769Z,77.70
2018-01-03T18:43:28.083Z,76.60
2018-01-03T18:46:00.834Z,76.70
2018-01-03T18:48:34.114Z,76.60
2018-01-03T18:51:05.271Z,76.70
2018-01-03T18:53:37.214Z,76.00
2018-01-03T18:56:08.198Z,75.80
2018-01-03T18:58:39.765Z,74.40
2018-01-03T19:01:12.868Z,75.20
2018-01-03T19:03:45.172Z,74.90
2018-01-03T19:06:17.490Z,74.20
2018-01-03T19:08:49.693Z,73.70
2018-01-03T19:11:21.595Z,73.60
2018-01-03T19:13:54.037Z,72.10
2018-01-03T19:16:25.126Z,73.10
2018-01-03T19:18:57.046Z,72.50
2018-01-03T19:21:29.184Z,72.50
2018-01-03T19:24:01.463Z,72.70
2018-01-03T19:26:32.799Z,72.10
2018-01-03T19:29:05.058Z,72.20
2018-01-03T19:31:37.558Z,71.90
2018-01-03T19:34:08.961Z,71.50
2018-01-03T19:36:43.922Z,71.90
2018-01-03T19:39:16.056Z,72.30
2018-01-03T19:41:47.232Z,71.50
2018-01-03T19:44:20.642Z,71.40
2018-01-03T19:46:53.103Z,71.60
2018-01-03T19:49:27.092Z,71.40
2018-01-03T19:52:03.067Z,71.50
2018-01-03T19:54:36.757Z,71.40
2018-01-03T19:57:08.932Z,71.40
2018-01-03T19:59:40.042Z,71.50
2018-01-03T20:02:10.931Z,71.40
2018-01-03T20:04:43.353Z,71.20
2018-01-03T20:07:15.582Z,71.20
2018-01-03T20:09:52.631Z,70.60
2018-01-03T20:12:25.558Z,70.50
2018-01-03T20:14:57.499Z,70.40
2018-01-03T20:17:29.758Z,70.00
2018-01-03T20:20:05.040Z,70.00
2018-01-03T20:22:36.361Z,70.00
2018-01-03T20:25:08.070Z,69.80
2018-01-03T20:27:39.490Z,69.80
2018-01-03T20:30:11.689Z,70.50
2018-01-03T20:32:46.358Z,70.50
2018-01-03T20:35:26.999Z,70.10
2018-01-03T20:37:57.902Z,69.60
2018-01-03T20:40:29.728Z,70.00
2018-01-03T20:43:02.079Z,69.80
2018-01-03T20:45:34.225Z,69.80
2018-01-03T20:48:06.570Z,69.10
2018-01-03T20:50:37.358Z,69.80
2018-01-03T20:53:09.504Z,69.20
2018-01-03T20:55:42.001Z,68.90
2018-01-03T20:58:12.887Z,69.10
2018-01-03T21:00:44.251Z,68.90
2018-01-03T21:03:16.192Z,68.90
2018-01-03T21:05:50.032Z,68.80
2018-01-03T21:08:20.685Z,68.90
2018-01-03T21:10:52.288Z,68.40
2018-01-03T21:13:24.712Z,68.70
2018-01-03T21:15:55.724Z,67.90
2018-01-03T21:18:27.742Z,68.40
2018-01-03T21:20:59.276Z,68.30
2018-01-03T21:23:32.822Z,68.20
2018-01-03T21:26:05.495Z,68.20
2018-01-03T21:28:36.542Z,68.00
2018-01-03T21:31:09.079Z,68.50
2018-01-03T21:33:40.934Z,68.60
2018-01-03T21:36:12.923Z,68.50
2018-01-03T21:38:45.643Z,68.60
2018-01-03T21:41:16.995Z,69.00
2018-01-03T21:43:48.752Z,69.10
2018-01-03T21:46:20.840Z,69.60
2018-01-03T21:48:52.676Z,69.30
2018-01-03T21:51:24.882Z,69.40
2018-01-03T21:53:57.259Z,69.10
2018-01-03T21:56:28.221Z,69.00
2018-01-03T21:59:00.478Z,69.20
2018-01-03T22:01:32.212Z,69.10
2018-01-03T22:04:03.321Z,69.90
2018-01-03T22:06:35.881Z,69.60
2018-01-03T22:09:07.589Z,69.80
2018-01-03T22:11:39.403Z,70.70
2018-01-03T22:14:11.338Z,71.00
2018-01-03T22:16:43.571Z,71.20
2018-01-03T22:19:16.391Z,71.60
2018-01-03T22:21:49.365Z,71.60
2018-01-03T22:24:21.636Z,71.00
2018-01-03T22:26:52.668Z,71.00
2018-01-03T22:29:25.792Z,72.20
2018-01-03T22:31:59.244Z,72.30
2018-01-03T22:34:30.741Z,71.90
2018-01-03T22:37:03.012Z,71.90
2018-01-03T22:39:34.314Z,71.90
2018-01-03T22:42:05.201Z,72.30
2018-01-03T22:44:36.970Z,71.40
2018-01-03T22:47:07.446Z,71.10
2018-01-03T22:49:39.268Z,70.60
2018-01-03T22:52:10.468Z,70.50
2018-01-03T22:54:41.471Z,71.10
2018-01-03T22:57:19.828Z,71.10
2018-01-03T22:59:50.877Z,71.70
2018-01-03T23:02:24.167Z,72.30
2018-01-03T23:04:55.047Z,72.60
2018-01-03T23:07:26.801Z,72.70
2018-01-03T23:09:59.268Z,73.20
2018-01-03T23:12:32.698Z,73.10
2018-01-03T23:15:06.029Z,73.50
2018-01-03T23:17:36.703Z,73.50
2018-01-03T23:20:08.685Z,73.60
2018-01-03T23:22:41.162Z,73.20
2018-01-03T23:25:12.873Z,73.20
2018-01-03T23:27:43.401Z,73.00
2018-01-03T23:30:15.118Z,72.60
2018-01-03T23:32:49.357Z,72.20
2018-01-03T23:35:20.331Z,72.20
2018-01-03T23:37:53.169Z,72.60
2018-01-03T23:40:26.366Z,72.60
2018-01-03T23:42:58.080Z,73.00
2018-01-03T23:45:30.897Z,72.70
2018-01-03T23:48:03.225Z,72.20
2018-01-03T23:50:34.949Z,72.20
2018-01-03T23:53:07.188Z,72.90
2018-01-03T23:55:38.532Z,73.00
2018-01-03T23:58:10.973Z,72.80
